Lakemont, New York
Current Conditions -  °F | °C
As of 10:53 AM on Monday 22 Dec 2014 (Local Time) from KPEO Reporting Station
Clear Clear  
Wind Chill: 23°   Ceiling: Unl
Heat Index: 31°   Visibility: 10mi
Dew Point: 23°   Wind: 8mph
Humidity: 72%   Direction: 170°S
Pressure: 30.22"   Gusts: NA
Location:  42.52°N, 76.93°W
Report Text: KPEO 221553Z AUTO 17007KT 10SM CLR M01/M05 A3022 RMK AO2 SLP247 T10061050
Loading
Personal Weather Stations






























Interactive Weather Map New forecast layout! Learn more

10-Day Weather Forecast

Advertisements
Track Severe Weather on mobile